createdAt,value
2017-11-17T00:01:43.355Z,145.67
2017-11-17T00:04:22.996Z,167.40
2017-11-17T00:07:02.943Z,154.70
2017-11-17T00:09:44.361Z,142.00
2017-11-17T00:12:24.056Z,103.57
2017-11-17T00:15:04.607Z,61.13
2017-11-17T00:17:45.666Z,51.17
2017-11-17T00:20:26.122Z,43.50
2017-11-17T00:23:11.437Z,32.03
2017-11-17T00:25:52.104Z,29.50
2017-11-17T00:28:31.810Z,17.30
2017-11-17T00:31:13.768Z,13.17
2017-11-17T00:33:54.714Z,4.10
2017-11-17T00:36:35.849Z,6.37
2017-11-17T00:39:18.155Z,4.43
2017-11-17T00:42:00.500Z,4.40
2017-11-17T00:44:41.933Z,9.67
2017-11-17T00:47:26.767Z,11.30
2017-11-17T00:50:09.995Z,5.70
2017-11-17T00:52:53.613Z,7.47
2017-11-17T00:55:33.561Z,5.60
2017-11-17T00:58:16.417Z,6.60
2017-11-17T01:01:01.549Z,15.87
2017-11-17T01:03:44.918Z,7.10
2017-11-17T01:06:25.748Z,13.93
2017-11-17T01:09:08.366Z,11.53
2017-11-17T01:11:50.426Z,11.40
2017-11-17T01:14:42.212Z,14.20
2017-11-17T01:17:26.425Z,9.43
2017-11-17T01:20:05.817Z,16.53
2017-11-17T01:22:45.642Z,13.33
2017-11-17T01:25:26.392Z,14.17
2017-11-17T01:28:07.315Z,7.40
2017-11-17T01:30:48.597Z,10.20
2017-11-17T01:33:33.616Z,5.33
2017-11-17T01:36:14.689Z,12.10
2017-11-17T01:38:58.330Z,7.97
2017-11-17T01:41:38.053Z,7.73
2017-11-17T01:44:19.586Z,7.57
2017-11-17T01:47:04.478Z,15.40
2017-11-17T01:49:44.367Z,5.93
2017-11-17T01:52:25.700Z,9.43
2017-11-17T01:55:08.459Z,10.87
2017-11-17T01:57:50.905Z,17.70
2017-11-17T02:00:31.809Z,10.33
2017-11-17T02:03:15.380Z,18.10
2017-11-17T02:05:55.996Z,23.37
2017-11-17T02:08:43.401Z,20.20
2017-11-17T02:11:24.067Z,18.63
2017-11-17T02:14:04.500Z,23.93
2017-11-17T02:16:45.006Z,14.77
2017-11-17T02:19:42.140Z,17.43
2017-11-17T02:22:22.859Z,16.70
2017-11-17T02:25:04.127Z,15.40
2017-11-17T02:27:51.343Z,17.50
2017-11-17T02:30:32.829Z,23.20
2017-11-17T02:43:52.026Z,13.20
2017-11-17T02:46:42.370Z,26.10
2017-11-17T02:49:25.642Z,17.73
2017-11-17T02:52:05.448Z,27.87
2017-11-17T02:54:46.458Z,32.00
2017-11-17T02:57:27.248Z,23.33
2017-11-17T03:00:13.695Z,15.60
2017-11-17T03:02:55.356Z,21.87
2017-11-17T03:05:37.804Z,26.23
2017-11-17T03:08:30.451Z,20.10
2017-11-17T03:11:10.387Z,20.37
2017-11-17T03:13:53.991Z,21.87
2017-11-17T03:16:33.986Z,25.17
2017-11-17T03:19:17.820Z,24.17
2017-11-17T03:21:59.164Z,23.80
2017-11-17T03:24:41.286Z,16.80
2017-11-17T03:27:28.443Z,30.57
2017-11-17T03:30:08.830Z,22.43
2017-11-17T03:35:42.321Z,27.13
2017-11-17T03:38:22.944Z,23.60
2017-11-17T03:41:03.192Z,23.50
2017-11-17T03:43:45.448Z,24.83
2017-11-17T03:46:31.218Z,29.57
2017-11-17T03:49:11.327Z,19.83
2017-11-17T03:51:51.603Z,31.07
2017-11-17T03:54:31.348Z,18.60
2017-11-17T03:57:11.039Z,33.73
2017-11-17T03:59:51.218Z,26.90
2017-11-17T04:02:32.676Z,23.90
2017-11-17T04:05:22.046Z,31.53
2017-11-17T04:08:03.781Z,28.90
2017-11-17T04:10:44.215Z,39.60
2017-11-17T04:13:25.163Z,33.97
2017-11-17T04:16:06.385Z,30.00
2017-11-17T04:18:47.166Z,31.47
2017-11-17T04:21:31.901Z,28.57
2017-11-17T04:24:12.709Z,31.27
2017-11-17T04:26:52.573Z,19.80
2017-11-17T04:29:44.344Z,31.50
2017-11-17T04:32:30.880Z,21.50
2017-11-17T04:35:17.599Z,26.50
2017-11-17T04:38:05.993Z,22.10
2017-11-17T04:40:51.331Z,22.50
2017-11-17T04:43:33.383Z,29.57
2017-11-17T04:46:15.855Z,21.33
2017-11-17T04:49:00.596Z,23.60
2017-11-17T04:52:01.123Z,20.07
2017-11-17T04:54:43.051Z,29.17
2017-11-17T05:00:13.868Z,26.40
2017-11-17T05:02:54.432Z,35.53
2017-11-17T05:05:35.614Z,23.27
2017-11-17T05:08:17.611Z,16.37
2017-11-17T05:10:57.471Z,15.40
2017-11-17T05:13:37.979Z,16.93
2017-11-17T05:16:17.711Z,17.83
2017-11-17T05:19:01.441Z,30.40
2017-11-17T05:21:41.449Z,20.40
2017-11-17T05:24:23.250Z,31.93
2017-11-17T05:27:15.603Z,16.00
2017-11-17T05:29:56.414Z,24.77
2017-11-17T05:32:38.203Z,29.67
2017-11-17T05:35:26.974Z,23.63
2017-11-17T05:38:08.379Z,24.40
2017-11-17T05:40:49.548Z,28.30
2017-11-17T05:43:30.782Z,23.13
2017-11-17T05:46:14.727Z,36.10
2017-11-17T05:52:00.793Z,18.33
2017-11-17T05:54:42.958Z,31.33
2017-11-17T05:57:24.703Z,24.70
2017-11-17T06:00:08.365Z,29.83
2017-11-17T06:02:50.611Z,16.47
2017-11-17T06:05:46.145Z,36.57
2017-11-17T06:08:30.806Z,27.80
2017-11-17T06:11:12.296Z,21.47
2017-11-17T06:13:54.827Z,26.97
2017-11-17T06:16:39.299Z,15.70
2017-11-17T06:19:19.573Z,25.50
2017-11-17T06:22:14.041Z,26.50
2017-11-17T06:24:53.891Z,23.30
2017-11-17T06:27:33.747Z,22.70
2017-11-17T06:30:21.477Z,27.83
2017-11-17T06:33:04.675Z,20.33
2017-11-17T06:35:51.057Z,22.73
2017-11-17T06:38:31.001Z,13.63
2017-11-17T06:41:25.695Z,20.07
2017-11-17T06:44:10.087Z,21.07
2017-11-17T06:47:02.680Z,16.27
2017-11-17T06:49:46.235Z,33.27
2017-11-17T06:52:30.799Z,15.00
2017-11-17T06:55:10.782Z,24.73
2017-11-17T06:57:54.072Z,23.27
2017-11-17T07:00:53.644Z,29.50
2017-11-17T07:03:44.692Z,22.77
2017-11-17T07:06:27.219Z,32.17
2017-11-17T07:10:53.823Z,31.77
2017-11-17T07:13:49.193Z,33.13
2017-11-17T07:16:32.214Z,23.97
2017-11-17T07:19:23.320Z,40.80
2017-11-17T07:22:16.361Z,18.63
2017-11-17T07:24:57.802Z,25.10
2017-11-17T07:27:41.178Z,21.23
2017-11-17T07:30:24.833Z,22.97
2017-11-17T07:33:06.818Z,19.60
2017-11-17T07:35:52.408Z,19.17
2017-11-17T07:38:33.321Z,28.63
2017-11-17T07:41:14.182Z,29.17
2017-11-17T07:43:55.947Z,30.40
2017-11-17T07:46:40.995Z,31.80
2017-11-17T07:49:23.789Z,22.47
2017-11-17T07:52:07.246Z,18.43
2017-11-17T07:55:24.353Z,20.37
2017-11-17T07:59:13.710Z,28.47
2017-11-17T08:04:12.181Z,21.30
2017-11-17T08:06:39.517Z,19.70
2017-11-17T08:09:07.008Z,21.03
2017-11-17T08:11:33.666Z,16.13
2017-11-17T08:14:00.701Z,19.50
2017-11-17T08:16:27.484Z,20.63
2017-11-17T08:18:54.345Z,21.57
2017-11-17T08:21:21.500Z,29.43
2017-11-17T08:23:48.300Z,29.17
2017-11-17T08:26:15.023Z,16.67
2017-11-17T08:28:42.587Z,32.13
2017-11-17T08:31:09.322Z,26.73
2017-11-17T08:33:37.215Z,33.47
2017-11-17T08:36:04.131Z,20.07
2017-11-17T08:38:30.818Z,20.17
2017-11-17T08:40:57.672Z,20.57
2017-11-17T08:43:24.404Z,10.43
2017-11-17T08:45:51.621Z,21.47
2017-11-17T08:48:19.244Z,27.83
2017-11-17T08:50:46.113Z,40.83
2017-11-17T08:53:12.755Z,21.87
2017-11-17T08:55:39.955Z,18.73
2017-11-17T09:01:41.422Z,13.00
2017-11-17T09:04:08.011Z,28.27
2017-11-17T09:06:34.560Z,18.00
2017-11-17T09:09:01.166Z,18.73
2017-11-17T09:11:27.721Z,31.00
2017-11-17T09:13:54.278Z,13.40
2017-11-17T09:18:33.999Z,22.07
2017-11-17T09:21:00.692Z,13.60
2017-11-17T09:23:27.348Z,21.40
2017-11-17T09:25:54.144Z,25.17
2017-11-17T09:28:21.358Z,19.27
2017-11-17T09:30:49.195Z,20.67
2017-11-17T09:33:16.691Z,34.83
2017-11-17T09:35:44.321Z,17.17
2017-11-17T09:38:13.711Z,15.70
2017-11-17T09:40:40.714Z,16.80
2017-11-17T09:43:07.952Z,28.60
2017-11-17T09:45:38.162Z,19.03
2017-11-17T09:48:06.392Z,24.90
2017-11-17T09:50:34.242Z,28.17
2017-11-17T09:53:01.020Z,33.77
2017-11-17T09:55:29.629Z,25.90
2017-11-17T09:57:57.761Z,15.10
2017-11-17T10:00:25.025Z,16.93
2017-11-17T10:02:51.796Z,26.63
2017-11-17T10:05:19.195Z,15.13
2017-11-17T10:07:47.800Z,13.93
2017-11-17T10:10:14.473Z,22.73
2017-11-17T10:12:41.289Z,14.63
2017-11-17T10:15:08.431Z,14.73
2017-11-17T10:17:35.199Z,11.60
2017-11-17T10:20:03.036Z,16.43
2017-11-17T10:22:29.777Z,20.93
2017-11-17T10:24:56.641Z,17.37
2017-11-17T10:27:24.223Z,36.80
2017-11-17T10:29:51.004Z,19.63
2017-11-17T10:32:18.129Z,20.67
2017-11-17T10:34:45.010Z,14.03
2017-11-17T10:37:12.521Z,24.80
2017-11-17T10:39:40.314Z,16.47
2017-11-17T10:42:07.072Z,16.10
2017-11-17T10:44:34.354Z,19.90
2017-11-17T10:47:01.237Z,21.90
2017-11-17T10:49:29.049Z,13.60
2017-11-17T10:51:55.745Z,14.00
2017-11-17T10:54:22.441Z,12.27
2017-11-17T10:56:49.102Z,18.47
2017-11-17T10:59:17.847Z,17.07
2017-11-17T11:01:44.974Z,17.80
2017-11-17T11:04:13.527Z,17.93
2017-11-17T11:06:40.164Z,19.53
2017-11-17T11:09:07.717Z,19.00
2017-11-17T11:11:41.150Z,14.70
2017-11-17T11:14:08.618Z,15.10
2017-11-17T11:16:35.322Z,20.70
2017-11-17T11:19:02.064Z,25.50
2017-11-17T11:21:29.494Z,14.90
2017-11-17T11:23:56.239Z,15.00
2017-11-17T11:26:24.082Z,10.93
2017-11-17T11:28:50.796Z,9.93
2017-11-17T11:31:18.621Z,20.53
2017-11-17T11:33:47.069Z,14.07
2017-11-17T11:36:17.961Z,13.57
2017-11-17T11:38:46.424Z,22.23
2017-11-17T11:41:13.226Z,13.83
2017-11-17T11:43:40.003Z,20.60
2017-11-17T11:46:06.720Z,25.43
2017-11-17T11:48:33.877Z,13.60
2017-11-17T11:51:01.345Z,21.37
2017-11-17T11:53:28.205Z,8.13
2017-11-17T11:55:55.411Z,9.60
2017-11-17T11:58:23.214Z,16.20
2017-11-17T12:00:51.235Z,12.63
2017-11-17T12:03:17.912Z,10.73
2017-11-17T12:05:45.350Z,10.13
2017-11-17T12:08:12.230Z,18.03
2017-11-17T12:10:39.035Z,12.77
2017-11-17T12:13:06.963Z,11.70
2017-11-17T12:15:34.563Z,16.03
2017-11-17T12:18:02.323Z,17.90
2017-11-17T12:20:29.359Z,15.70
2017-11-17T12:22:56.301Z,12.97
2017-11-17T12:25:23.079Z,11.60
2017-11-17T12:27:49.870Z,13.70
2017-11-17T12:30:16.734Z,16.50
2017-11-17T12:32:43.500Z,12.20
2017-11-17T12:35:11.637Z,19.83
2017-11-17T12:37:38.276Z,16.07
2017-11-17T12:40:04.998Z,14.83
2017-11-17T12:42:32.911Z,19.27
2017-11-17T12:45:00.081Z,17.53
2017-11-17T12:47:27.417Z,16.73
2017-11-17T12:49:54.219Z,14.00
2017-11-17T12:52:21.165Z,18.73
2017-11-17T12:54:49.052Z,19.03
2017-11-17T12:57:16.673Z,9.03
2017-11-17T12:59:44.353Z,12.73
2017-11-17T13:02:12.307Z,10.33
2017-11-17T13:04:39.588Z,16.90
2017-11-17T13:07:07.263Z,12.30
2017-11-17T13:09:35.183Z,8.00
2017-11-17T13:12:01.910Z,6.13
2017-11-17T13:14:29.072Z,11.60
2017-11-17T13:16:57.503Z,10.30
2017-11-17T13:19:24.997Z,10.80
2017-11-17T13:21:52.932Z,21.83
2017-11-17T13:24:20.592Z,17.03
2017-11-17T13:26:47.843Z,17.33
2017-11-17T13:29:15.218Z,16.97
2017-11-17T13:31:41.924Z,11.10
2017-11-17T13:34:08.926Z,9.27
2017-11-17T13:36:35.650Z,15.57
2017-11-17T13:39:02.542Z,14.10
2017-11-17T13:41:30.005Z,13.90
2017-11-17T13:43:56.929Z,10.37
2017-11-17T13:46:23.669Z,13.03
2017-11-17T13:48:50.979Z,16.80
2017-11-17T13:51:18.931Z,12.63
2017-11-17T13:53:46.788Z,12.90
2017-11-17T13:56:15.247Z,14.70
2017-11-17T13:58:42.868Z,9.00
2017-11-17T14:01:11.459Z,12.23
2017-11-17T14:03:38.699Z,11.80
2017-11-17T14:06:06.189Z,12.67
2017-11-17T14:08:33.856Z,11.33
2017-11-17T14:11:01.067Z,16.43
2017-11-17T14:13:29.761Z,14.53
2017-11-17T14:15:58.312Z,10.37
2017-11-17T14:18:26.133Z,14.67
2017-11-17T14:20:53.476Z,11.10
2017-11-17T14:23:21.068Z,17.30
2017-11-17T14:39:00.672Z,12.00
2017-11-17T14:51:46.149Z,16.63
2017-11-17T14:59:20.817Z,16.37
2017-11-17T15:40:03.189Z,14.13
2017-11-17T16:33:33.452Z,14.97
2017-11-17T16:36:00.963Z,5.90
2017-11-17T16:38:28.784Z,15.00
2017-11-17T16:40:55.982Z,10.07
2017-11-17T16:43:23.685Z,16.63
2017-11-17T16:45:52.257Z,9.73
2017-11-17T16:48:19.568Z,7.77
2017-11-17T16:50:46.450Z,7.33
2017-11-17T16:53:14.336Z,6.20
2017-11-17T16:55:41.834Z,13.90
2017-11-17T16:58:10.594Z,14.70
2017-11-17T17:00:38.503Z,23.90
2017-11-17T17:03:11.410Z,6.60
2017-11-17T17:05:38.760Z,10.40
2017-11-17T17:08:05.809Z,7.33
2017-11-17T17:10:34.132Z,14.83
2017-11-17T17:13:00.959Z,11.97
2017-11-17T17:15:27.845Z,41.17
2017-11-17T17:17:54.712Z,13.67
2017-11-17T17:20:21.920Z,11.13
2017-11-17T17:22:48.878Z,16.80
2017-11-17T17:25:15.851Z,12.03
2017-11-17T17:27:42.712Z,9.57
2017-11-17T17:30:10.335Z,10.97
2017-11-17T17:32:37.218Z,10.00
2017-11-17T17:35:03.971Z,13.13
2017-11-17T17:37:30.657Z,8.70
2017-11-17T17:39:57.351Z,15.10
2017-11-17T17:42:24.030Z,14.37
2017-11-17T17:44:51.410Z,14.53
2017-11-17T17:47:18.222Z,6.57
2017-11-17T17:49:45.017Z,7.97
2017-11-17T17:52:11.813Z,15.37
2017-11-17T17:54:39.046Z,9.90
2017-11-17T17:57:05.869Z,7.80
2017-11-17T17:59:32.614Z,15.93
2017-11-17T18:02:00.624Z,10.60
2017-11-17T18:04:27.343Z,14.00
2017-11-17T18:06:54.836Z,12.23
2017-11-17T18:09:22.844Z,18.03
2017-11-17T18:11:49.733Z,10.47
2017-11-17T18:14:16.539Z,12.73
2017-11-17T18:16:43.974Z,17.27
2017-11-17T18:19:10.612Z,15.80
2017-11-17T18:21:38.132Z,18.80
2017-11-17T18:24:04.826Z,9.20
2017-11-17T18:26:32.477Z,16.13
2017-11-17T18:28:59.174Z,13.27
2017-11-17T18:31:25.923Z,9.87
2017-11-17T18:33:52.693Z,18.27
2017-11-17T18:36:20.709Z,23.20
2017-11-17T18:38:47.591Z,8.00
2017-11-17T18:41:14.608Z,10.50
2017-11-17T18:43:41.939Z,22.50
2017-11-17T18:46:09.869Z,13.97
2017-11-17T18:48:36.609Z,16.30
2017-11-17T18:51:03.522Z,12.63
2017-11-17T18:53:30.514Z,16.83
2017-11-17T18:55:58.163Z,14.30
2017-11-17T18:58:25.212Z,11.73
2017-11-17T19:00:52.133Z,8.70
2017-11-17T19:03:19.658Z,16.93
2017-11-17T19:05:47.130Z,14.07
2017-11-17T19:08:13.825Z,15.50
2017-11-17T19:10:41.074Z,15.13
2017-11-17T19:13:08.024Z,20.37
2017-11-17T19:15:35.063Z,27.73
2017-11-17T19:18:03.801Z,9.63
2017-11-17T19:20:32.054Z,8.17
2017-11-17T19:23:00.830Z,15.63
2017-11-17T19:25:28.621Z,18.77
2017-11-17T19:27:56.268Z,12.27
2017-11-17T19:30:23.713Z,11.53
2017-11-17T19:32:50.454Z,13.07
2017-11-17T19:35:17.058Z,12.50
2017-11-17T19:37:43.704Z,11.70
2017-11-17T19:40:10.377Z,20.33
2017-11-17T19:42:36.974Z,21.30
2017-11-17T19:45:04.819Z,29.20
2017-11-17T19:47:31.455Z,11.23
2017-11-17T19:49:58.176Z,7.93
2017-11-17T19:52:25.094Z,13.73
2017-11-17T19:54:52.173Z,8.20
2017-11-17T19:57:19.054Z,17.87
2017-11-17T19:59:46.060Z,13.50
2017-11-17T20:02:12.686Z,7.20
2017-11-17T20:04:39.403Z,12.00
2017-11-17T20:07:06.982Z,10.10
2017-11-17T20:09:33.722Z,12.87
2017-11-17T20:12:00.713Z,15.97
2017-11-17T20:14:28.466Z,10.67
2017-11-17T20:16:55.112Z,16.27
2017-11-17T20:19:21.960Z,8.37
2017-11-17T20:21:48.761Z,8.63
2017-11-17T20:24:15.397Z,18.23
2017-11-17T20:26:42.137Z,14.03
2017-11-17T20:29:09.077Z,11.00
2017-11-17T20:31:37.455Z,7.37
2017-11-17T20:34:04.594Z,10.67
2017-11-17T20:36:31.257Z,15.73
2017-11-17T20:38:58.692Z,20.60
2017-11-17T20:41:26.324Z,15.70
2017-11-17T20:43:53.681Z,22.83
2017-11-17T20:46:20.263Z,11.30
2017-11-17T20:48:46.795Z,22.00
2017-11-17T20:51:13.424Z,29.37
2017-11-17T20:53:40.874Z,17.93
2017-11-17T20:56:07.514Z,26.20
2017-11-17T20:58:34.142Z,9.40
2017-11-17T21:01:00.826Z,5.33
2017-11-17T21:03:27.470Z,13.00
2017-11-17T21:05:54.106Z,13.00
2017-11-17T21:08:21.754Z,8.67
2017-11-17T21:10:48.287Z,14.90
2017-11-17T21:13:15.598Z,14.07
2017-11-17T21:15:42.919Z,9.30
2017-11-17T21:18:09.603Z,21.47
2017-11-17T21:20:37.313Z,14.13
2017-11-17T21:23:04.150Z,10.37
2017-11-17T21:25:30.858Z,10.60
2017-11-17T21:27:57.828Z,8.70
2017-11-17T21:30:25.559Z,21.07
2017-11-17T21:32:52.221Z,9.10
2017-11-17T21:35:18.886Z,8.40
2017-11-17T21:37:45.698Z,11.27
2017-11-17T21:40:12.817Z,18.67
2017-11-17T21:42:39.497Z,9.50
2017-11-17T21:45:06.137Z,25.10
2017-11-17T21:47:32.736Z,14.67
2017-11-17T21:50:00.293Z,12.07
2017-11-17T21:52:27.079Z,8.57
2017-11-17T21:54:54.493Z,16.00
2017-11-17T21:57:23.184Z,15.50
2017-11-17T21:59:50.531Z,18.37
2017-11-17T22:02:17.219Z,20.37
2017-11-17T22:04:44.420Z,9.77
2017-11-17T22:07:11.210Z,10.90
2017-11-17T22:09:37.724Z,10.07
2017-11-17T22:12:04.538Z,25.67
2017-11-17T22:14:31.216Z,12.77
2017-11-17T22:16:58.004Z,17.20
2017-11-17T22:19:24.639Z,7.93
2017-11-17T22:21:51.253Z,10.77
2017-11-17T22:24:17.963Z,7.03
2017-11-17T22:26:47.677Z,14.67
2017-11-17T22:29:14.255Z,11.03
2017-11-17T22:31:41.083Z,18.67
2017-11-17T22:34:08.459Z,14.67
2017-11-17T22:36:35.879Z,15.77
2017-11-17T22:39:02.547Z,19.50
2017-11-17T22:41:29.445Z,9.37
2017-11-17T22:43:56.755Z,17.50
2017-11-17T22:46:23.305Z,17.97
2017-11-17T22:48:49.969Z,12.30
2017-11-17T22:51:16.740Z,8.13
2017-11-17T22:53:43.431Z,6.40
2017-11-17T22:56:10.267Z,13.77
2017-11-17T22:58:36.745Z,20.53
2017-11-17T23:01:03.333Z,20.37
2017-11-17T23:03:30.175Z,10.97
2017-11-17T23:05:56.867Z,13.13
2017-11-17T23:08:24.836Z,13.73
2017-11-17T23:10:51.567Z,11.03
2017-11-17T23:13:18.251Z,8.30
2017-11-17T23:15:44.931Z,15.20
2017-11-17T23:18:12.541Z,11.93
2017-11-17T23:20:39.147Z,7.57
2017-11-17T23:23:05.653Z,9.20
2017-11-17T23:25:33.068Z,7.80
2017-11-17T23:27:59.900Z,12.80
2017-11-17T23:30:26.479Z,13.10
2017-11-17T23:32:53.139Z,12.70
2017-11-17T23:35:19.825Z,10.30
2017-11-17T23:37:46.611Z,23.87
2017-11-17T23:40:13.741Z,9.80
2017-11-17T23:42:42.054Z,13.47
2017-11-17T23:45:08.620Z,15.00
2017-11-17T23:47:35.472Z,14.60
2017-11-17T23:50:02.050Z,11.30
2017-11-17T23:52:29.575Z,9.30
2017-11-17T23:54:57.266Z,5.90
2017-11-17T23:57:24.590Z,17.90
2017-11-17T23:59:52.014Z,11.20
